Time;durP1;ratioP1;P1;durP2;ratioP2;P2;SDS_P1;SDS_P2;PMS_P1;PMS_P2;Temp;Humidity;BMP_temperature;BMP_pressure;BME280_temperature;BME280_humidity;BME280_pressure;Samples;Min_cycle;Max_cycle;Signal;HPM_P1;HPM_P2
2023/02/01 00:00:10;;;;;;;11.65;1.77;;;;;;;;;;4990587;28;20037;-83
2023/02/01 00:02:39;;;;;;;7.22;2.03;;;;;;;;;;5006016;28;20103;-83
2023/02/01 00:05:05;;;;;;;8.20;2.28;;;;;;;;;;5003439;28;20116;-80
2023/02/01 00:07:31;;;;;;;13.45;2.45;;;;;;;;;;4988317;28;20027;-83
2023/02/01 00:09:56;;;;;;;8.27;3.08;;;;;;;;;;5006792;28;20429;-83
2023/02/01 00:12:21;;;;;;;9.15;1.83;;;;;;;;;;5003837;28;20049;-83
2023/02/01 00:14:48;;;;;;;11.52;2.05;;;;;;;;;;5006044;28;20410;-83
2023/02/01 00:17:13;;;;;;;9.23;1.88;;;;;;;;;;5009937;28;20030;-82
2023/02/01 00:19:39;;;;;;;4.30;1.55;;;;;;;;;;5000803;28;20149;-82
2023/02/01 00:22:04;;;;;;;6.72;1.45;;;;;;;;;;4986426;28;20022;-83
2023/02/01 00:24:29;;;;;;;11.35;1.85;;;;;;;;;;5002292;28;20442;-83
2023/02/01 00:26:55;;;;;;;6.32;1.63;;;;;;;;;;5006331;28;20030;-82
2023/02/01 00:29:21;;;;;;;7.25;1.65;;;;;;;;;;5007993;28;20030;-82
2023/02/01 00:31:46;;;;;;;6.65;1.88;;;;;;;;;;4992655;28;20068;-82
2023/02/01 00:34:15;;;;;;;6.53;1.50;;;;;;;;;;5010568;28;20105;-82
2023/02/01 00:36:42;;;;;;;10.50;2.08;;;;;;;;;;5004511;28;20088;-82
2023/02/01 00:39:08;;;;;;;6.82;1.73;;;;;;;;;;5001831;28;20517;-83
2023/02/01 00:41:33;;;;;;;11.00;2.25;;;;;;;;;;4987412;28;20560;-83
2023/02/01 00:43:59;;;;;;;7.63;1.50;;;;;;;;;;5008842;28;20017;-82
2023/02/01 00:46:24;;;;;;;8.20;1.23;;;;;;;;;;5007058;28;20470;-82
2023/02/01 00:48:51;;;;;;;4.22;1.25;;;;;;;;;;5004806;28;20430;-82
2023/02/01 00:51:20;;;;;;;13.55;2.17;;;;;;;;;;5007662;28;20097;-82
2023/02/01 00:53:46;;;;;;;6.30;1.25;;;;;;;;;;5007128;28;20037;-83
2023/02/01 00:56:12;;;;;;;6.00;1.48;;;;;;;;;;5007141;28;20021;-83
2023/02/01 00:58:37;;;;;;;9.27;1.40;;;;;;;;;;5005195;28;20092;-83
2023/02/01 01:01:06;;;;;;;6.38;1.52;;;;;;;;;;5005638;28;20041;-83
2023/02/01 01:03:35;;;;;;;13.75;2.35;;;;;;;;;;4991247;28;20034;-80
2023/02/01 01:06:03;;;;;;;6.05;1.15;;;;;;;;;;5005604;28;20042;-82
2023/02/01 01:08:28;;;;;;;8.65;1.48;;;;;;;;;;5004147;28;20124;-82
2023/02/01 01:10:54;;;;;;;7.60;1.52;;;;;;;;;;5004002;28;20160;-83
2023/02/01 01:13:20;;;;;;;10.35;1.52;;;;;;;;;;5003114;28;20040;-82
2023/02/01 01:15:45;;;;;;;5.15;1.30;;;;;;;;;;5008247;28;20041;-83
2023/02/01 01:18:10;;;;;;;11.65;1.58;;;;;;;;;;5006220;28;20034;-83
2023/02/01 01:20:39;;;;;;;9.18;1.50;;;;;;;;;;5001321;28;20063;-83
2023/02/01 01:23:05;;;;;;;6.72;1.17;;;;;;;;;;5008720;28;20040;-82
2023/02/01 01:25:31;;;;;;;9.73;1.48;;;;;;;;;;4989911;28;20482;-82
2023/02/01 01:27:57;;;;;;;6.00;1.52;;;;;;;;;;5002916;28;20025;-83
2023/02/01 01:30:22;;;;;;;7.50;1.40;;;;;;;;;;5001921;28;20088;-82
2023/02/01 01:32:48;;;;;;;8.50;1.42;;;;;;;;;;5004371;28;20033;-82
2023/02/01 01:35:13;;;;;;;5.10;1.27;;;;;;;;;;5007553;28;20014;-82
2023/02/01 01:37:38;;;;;;;11.18;1.58;;;;;;;;;;5005558;28;20058;-83
2023/02/01 01:40:05;;;;;;;10.25;1.58;;;;;;;;;;5006772;28;20065;-83
2023/02/01 01:42:37;;;;;;;7.97;1.48;;;;;;;;;;5009643;28;20037;-82
2023/02/01 01:45:07;;;;;;;11.13;1.67;;;;;;;;;;5001336;28;20033;-82
2023/02/01 01:47:42;;;;;;;7.13;1.63;;;;;;;;;;5002677;28;20113;-83
2023/02/01 01:50:10;;;;;;;9.93;1.83;;;;;;;;;;5003753;28;20032;-82
2023/02/01 01:52:37;;;;;;;11.55;2.03;;;;;;;;;;5002252;28;20030;-83
2023/02/01 01:55:03;;;;;;;6.13;1.60;;;;;;;;;;5001796;28;20037;-82
2023/02/01 01:57:37;;;;;;;10.85;1.95;;;;;;;;;;4997571;28;20058;-82
2023/02/01 02:00:07;;;;;;;13.27;1.85;;;;;;;;;;4992451;28;20544;-79
2023/02/01 02:02:34;;;;;;;11.30;2.03;;;;;;;;;;5002277;28;20029;-82
2023/02/01 02:05:00;;;;;;;9.85;1.65;;;;;;;;;;5003829;28;20061;-82
2023/02/01 02:07:30;;;;;;;12.05;1.75;;;;;;;;;;5006004;28;20091;-82
2023/02/01 02:09:56;;;;;;;10.25;1.70;;;;;;;;;;4996886;28;20080;-83
2023/02/01 02:12:22;;;;;;;7.47;1.67;;;;;;;;;;5001069;28;20034;-82
2023/02/01 02:14:48;;;;;;;11.15;2.03;;;;;;;;;;5002456;28;20024;-83
2023/02/01 02:17:20;;;;;;;6.63;1.60;;;;;;;;;;5004321;28;20490;-83
2023/02/01 02:20:19;;;;;;;7.03;1.65;;;;;;;;;;5003048;28;20497;-82
2023/02/01 02:23:30;;;;;;;9.25;1.50;;;;;;;;;;5008973;28;20105;-82
2023/02/01 02:26:33;;;;;;;8.30;1.83;;;;;;;;;;4980826;28;20126;-81
2023/02/01 02:29:17;;;;;;;5.50;1.23;;;;;;;;;;4973566;28;20042;-83
2023/02/01 02:31:55;;;;;;;8.25;1.67;;;;;;;;;;5008852;28;20030;-82
2023/02/01 02:34:31;;;;;;;5.78;1.30;;;;;;;;;;5002590;28;20040;-82
2023/02/01 02:37:37;;;;;;;8.05;1.30;;;;;;;;;;5005713;28;20029;-81
2023/02/01 02:40:27;;;;;;;7.20;1.50;;;;;;;;;;5007308;28;20045;-83
2023/02/01 02:48:51;;;;;;;9.20;1.60;;;;;;;;;;5004849;28;20620;-82
2023/02/01 03:05:26;;;;;;;5.85;1.45;;;;;;;;;;5010114;28;20070;-83
2023/02/01 03:08:00;;;;;;;5.80;1.10;;;;;;;;;;5007351;28;20744;-82
2023/02/01 03:10:40;;;;;;;7.47;1.52;;;;;;;;;;5004119;28;20076;-83
2023/02/01 03:13:11;;;;;;;9.23;1.88;;;;;;;;;;5004797;28;20482;-83
2023/02/01 03:15:43;;;;;;;6.90;1.33;;;;;;;;;;5001562;28;20474;-83
2023/02/01 03:18:22;;;;;;;8.88;1.25;;;;;;;;;;4993830;28;20025;-80
2023/02/01 03:20:51;;;;;;;10.48;1.60;;;;;;;;;;5005823;28;20022;-83
2023/02/01 03:23:19;;;;;;;6.63;1.35;;;;;;;;;;5005749;28;20030;-83
2023/02/01 03:25:48;;;;;;;15.43;2.08;;;;;;;;;;5012033;28;20092;-81
2023/02/01 03:28:19;;;;;;;8.00;1.27;;;;;;;;;;5007372;28;20025;-81
2023/02/01 03:30:44;;;;;;;9.65;1.65;;;;;;;;;;5005205;28;20034;-83
2023/02/01 03:33:23;;;;;;;9.20;1.48;;;;;;;;;;5005106;28;20021;-83
2023/02/01 03:36:06;;;;;;;11.38;1.98;;;;;;;;;;5005355;28;20072;-84
2023/02/01 03:38:54;;;;;;;10.82;1.95;;;;;;;;;;5005933;28;20038;-82
2023/02/01 03:41:33;;;;;;;8.07;1.50;;;;;;;;;;5010203;28;20089;-83
2023/02/01 03:44:35;;;;;;;11.25;2.03;;;;;;;;;;5002229;28;20026;-82
2023/02/01 03:47:12;;;;;;;8.13;1.33;;;;;;;;;;5005466;28;20160;-82
2023/02/01 03:49:46;;;;;;;7.55;1.30;;;;;;;;;;5009457;28;20485;-83
2023/02/01 03:52:22;;;;;;;6.70;1.52;;;;;;;;;;5004836;28;20490;-82
2023/02/01 03:54:49;;;;;;;12.15;1.88;;;;;;;;;;5004607;28;20033;-82
2023/02/01 03:57:20;;;;;;;7.88;1.75;;;;;;;;;;5003355;28;20034;-82
2023/02/01 03:59:46;;;;;;;12.30;2.00;;;;;;;;;;5006708;28;20038;-83
2023/02/01 04:02:12;;;;;;;10.52;1.88;;;;;;;;;;5001683;28;20392;-83
2023/02/01 04:04:37;;;;;;;7.80;1.30;;;;;;;;;;5006883;28;20821;-82
2023/02/01 04:07:03;;;;;;;8.98;1.95;;;;;;;;;;5000896;28;20042;-83
2023/02/01 04:09:29;;;;;;;9.18;1.42;;;;;;;;;;5005497;28;20108;-82
2023/02/01 04:11:54;;;;;;;10.38;1.90;;;;;;;;;;5007097;28;20026;-82
2023/02/01 04:14:20;;;;;;;11.23;2.08;;;;;;;;;;5006800;28;20018;-83
2023/02/01 04:16:45;;;;;;;7.65;1.38;;;;;;;;;;5011450;28;20040;-83
2023/02/01 04:19:10;;;;;;;10.32;1.42;;;;;;;;;;5004055;28;20025;-83
2023/02/01 04:21:36;;;;;;;12.93;2.00;;;;;;;;;;5007266;28;20025;-82
2023/02/01 04:24:01;;;;;;;12.00;1.52;;;;;;;;;;5007015;28;20038;-83
2023/02/01 04:26:27;;;;;;;8.70;1.40;;;;;;;;;;5007065;28;20034;-83
2023/02/01 04:28:52;;;;;;;7.97;1.63;;;;;;;;;;5009398;28;20026;-83
2023/02/01 04:31:25;;;;;;;9.60;1.75;;;;;;;;;;4987760;28;20038;-83
2023/02/01 04:33:52;;;;;;;8.15;1.80;;;;;;;;;;5007385;28;20026;-83
2023/02/01 04:36:20;;;;;;;14.00;2.15;;;;;;;;;;5007899;28;20029;-83
2023/02/01 04:38:45;;;;;;;12.88;1.63;;;;;;;;;;5009737;28;20429;-82
2023/02/01 04:41:11;;;;;;;11.50;1.92;;;;;;;;;;5008110;28;20033;-82
2023/02/01 04:43:36;;;;;;;10.50;1.80;;;;;;;;;;5007681;28;20121;-82
2023/02/01 04:46:02;;;;;;;10.02;2.47;;;;;;;;;;4992570;28;20026;-82
2023/02/01 04:48:27;;;;;;;11.73;1.75;;;;;;;;;;5005089;28;20022;-83
2023/02/01 04:50:53;;;;;;;11.32;1.95;;;;;;;;;;4999017;28;20091;-82
2023/02/01 04:53:18;;;;;;;12.98;2.13;;;;;;;;;;4987535;28;20492;-83
2023/02/01 04:55:44;;;;;;;11.40;1.73;;;;;;;;;;4986009;28;20030;-82
2023/02/01 04:58:10;;;;;;;8.32;1.70;;;;;;;;;;5004666;28;20494;-83
2023/02/01 05:00:37;;;;;;;9.27;1.85;;;;;;;;;;4991056;28;20025;-83
2023/02/01 05:03:02;;;;;;;7.50;2.22;;;;;;;;;;5003080;28;20560;-83
2023/02/01 05:05:28;;;;;;;8.95;1.42;;;;;;;;;;4988617;28;20120;-82
2023/02/01 05:07:54;;;;;;;6.82;1.95;;;;;;;;;;5003104;28;20112;-83
2023/02/01 05:10:20;;;;;;;16.42;2.17;;;;;;;;;;4987106;28;20026;-83
2023/02/01 05:15:30;;;;;;;9.10;1.60;;;;;;;;;;5007127;28;20582;-82
2023/02/01 05:17:57;;;;;;;10.52;1.73;;;;;;;;;;5005823;28;20046;-83
2023/02/01 05:20:23;;;;;;;8.05;1.85;;;;;;;;;;4995707;28;20068;-83
2023/02/01 05:22:48;;;;;;;8.07;1.50;;;;;;;;;;5004962;28;20080;-83
2023/02/01 05:25:14;;;;;;;9.55;1.70;;;;;;;;;;4988523;28;20104;-83
2023/02/01 05:27:39;;;;;;;11.70;2.08;;;;;;;;;;5008380;28;20528;-80
2023/02/01 05:30:06;;;;;;;8.48;1.55;;;;;;;;;;5005617;28;20033;-83
2023/02/01 05:32:31;;;;;;;9.82;1.70;;;;;;;;;;4983972;28;20065;-83
2023/02/01 05:34:57;;;;;;;9.90;1.98;;;;;;;;;;5005479;28;20482;-83
2023/02/01 05:37:22;;;;;;;13.02;1.83;;;;;;;;;;5000423;28;20096;-82
2023/02/01 05:39:48;;;;;;;11.98;2.08;;;;;;;;;;4996628;28;20034;-83
2023/02/01 05:42:13;;;;;;;8.73;1.40;;;;;;;;;;4987827;28;20049;-82
2023/02/01 05:44:38;;;;;;;12.60;2.08;;;;;;;;;;5008985;28;20026;-83
2023/02/01 05:47:04;;;;;;;9.55;1.85;;;;;;;;;;4987344;28;20076;-83
2023/02/01 05:49:29;;;;;;;9.93;1.70;;;;;;;;;;5002777;28;20022;-83
2023/02/01 05:51:55;;;;;;;10.88;1.67;;;;;;;;;;5004476;28;20112;-83
2023/02/01 05:54:20;;;;;;;9.15;1.67;;;;;;;;;;5002023;28;20017;-83
2023/02/01 05:56:45;;;;;;;9.98;1.65;;;;;;;;;;5000602;28;20116;-83
2023/02/01 05:59:11;;;;;;;12.15;2.20;;;;;;;;;;4982149;28;20032;-83
2023/02/01 06:01:36;;;;;;;12.18;1.90;;;;;;;;;;4995760;28;20034;-83
2023/02/01 06:04:01;;;;;;;8.85;1.73;;;;;;;;;;5004146;28;20084;-83
2023/02/01 06:06:27;;;;;;;8.93;1.40;;;;;;;;;;5001166;28;20137;-83
2023/02/01 06:08:52;;;;;;;9.52;1.80;;;;;;;;;;5002228;28;20060;-83
2023/02/01 06:11:18;;;;;;;8.23;1.52;;;;;;;;;;4988440;28;20028;-82
2023/02/01 06:13:43;;;;;;;8.25;1.52;;;;;;;;;;5004947;28;20461;-83
2023/02/01 06:16:08;;;;;;;7.72;1.88;;;;;;;;;;5010607;28;20022;-83
2023/02/01 06:18:34;;;;;;;10.68;1.60;;;;;;;;;;5005175;28;20049;-83
2023/02/01 06:21:00;;;;;;;9.60;1.73;;;;;;;;;;5006287;28;20022;-82
2023/02/01 06:23:27;;;;;;;8.63;1.88;;;;;;;;;;5010467;28;20406;-83
2023/02/01 06:25:59;;;;;;;11.50;2.10;;;;;;;;;;5009290;28;20124;-84
2023/02/01 06:28:24;;;;;;;10.43;1.75;;;;;;;;;;5011549;28;20390;-83
2023/02/01 06:30:50;;;;;;;8.45;1.52;;;;;;;;;;4990149;28;20033;-82
2023/02/01 06:33:15;;;;;;;9.88;1.75;;;;;;;;;;5005347;28;20026;-82
2023/02/01 06:35:44;;;;;;;11.05;1.77;;;;;;;;;;5008442;28;20045;-84
2023/02/01 06:38:12;;;;;;;9.55;2.05;;;;;;;;;;5009137;28;20026;-83
2023/02/01 06:40:39;;;;;;;10.45;2.33;;;;;;;;;;5008007;28;20026;-83
2023/02/01 06:43:04;;;;;;;10.75;2.50;;;;;;;;;;5010981;28;20444;-81
2023/02/01 06:45:30;;;;;;;9.15;1.92;;;;;;;;;;4986956;28;20030;-83
2023/02/01 06:47:55;;;;;;;9.50;1.50;;;;;;;;;;5011595;28;20100;-83
2023/02/01 06:50:21;;;;;;;12.35;2.08;;;;;;;;;;4994048;28;20052;-81
2023/02/01 06:52:46;;;;;;;8.18;1.70;;;;;;;;;;5011774;28;20040;-83
2023/02/01 06:55:12;;;;;;;7.72;1.58;;;;;;;;;;5011647;28;20430;-83
2023/02/01 06:57:38;;;;;;;10.77;2.17;;;;;;;;;;5006243;28;20034;-80
2023/02/01 07:00:04;;;;;;;10.45;1.83;;;;;;;;;;4999926;28;20033;-82
2023/02/01 07:02:30;;;;;;;9.38;1.77;;;;;;;;;;5007564;28;20036;-83
2023/02/01 07:04:55;;;;;;;9.70;2.15;;;;;;;;;;4988094;28;20464;-83
2023/02/01 07:07:22;;;;;;;7.70;1.92;;;;;;;;;;5002364;28;20027;-83
2023/02/01 07:09:51;;;;;;;12.23;2.17;;;;;;;;;;5011054;28;20050;-83
2023/02/01 07:12:16;;;;;;;8.43;2.10;;;;;;;;;;4986357;28;20030;-79
2023/02/01 07:14:41;;;;;;;8.90;2.05;;;;;;;;;;5006343;28;20040;-82
2023/02/01 07:17:07;;;;;;;12.18;1.88;;;;;;;;;;5003603;28;20022;-83
2023/02/01 07:19:33;;;;;;;6.70;1.80;;;;;;;;;;4999651;28;20025;-83
2023/02/01 07:21:58;;;;;;;11.27;1.63;;;;;;;;;;5008339;28;20026;-82
2023/02/01 07:24:23;;;;;;;13.07;1.77;;;;;;;;;;4985657;28;20022;-83
2023/02/01 07:26:50;;;;;;;7.65;1.60;;;;;;;;;;5005869;28;20026;-83
2023/02/01 07:29:17;;;;;;;9.15;1.83;;;;;;;;;;5008168;28;20472;-83
2023/02/01 07:31:42;;;;;;;8.27;2.15;;;;;;;;;;5010456;28;20467;-83
2023/02/01 07:34:08;;;;;;;10.82;2.20;;;;;;;;;;5001062;28;20072;-83
2023/02/01 07:36:34;;;;;;;10.02;1.85;;;;;;;;;;5007359;28;20034;-81
2023/02/01 07:38:59;;;;;;;8.88;1.73;;;;;;;;;;4991574;28;20029;-83
2023/02/01 07:41:25;;;;;;;11.18;2.08;;;;;;;;;;4992071;28;20387;-83
2023/02/01 07:43:54;;;;;;;18.92;2.10;;;;;;;;;;5005125;28;20021;-83
2023/02/01 07:46:19;;;;;;;12.02;1.88;;;;;;;;;;5010883;28;20034;-83
2023/02/01 07:48:44;;;;;;;6.63;1.45;;;;;;;;;;4991279;28;20029;-84
2023/02/01 07:51:15;;;;;;;8.10;1.67;;;;;;;;;;5011819;28;20477;-85
2023/02/01 07:53:41;;;;;;;11.32;1.73;;;;;;;;;;5009342;28;20466;-84
2023/02/01 07:56:12;;;;;;;8.30;1.52;;;;;;;;;;5008343;28;20037;-83
2023/02/01 07:58:38;;;;;;;8.35;1.65;;;;;;;;;;5009192;28;20110;-84
2023/02/01 08:01:23;;;;;;;9.48;1.73;;;;;;;;;;5006728;28;20033;-84
2023/02/01 08:03:50;;;;;;;10.93;1.67;;;;;;;;;;5007603;28;20045;-83
2023/02/01 08:06:16;;;;;;;12.80;1.73;;;;;;;;;;5001767;28;20026;-82
2023/02/01 08:08:44;;;;;;;16.88;1.85;;;;;;;;;;5001335;28;20034;-83
2023/02/01 08:11:10;;;;;;;12.38;2.45;;;;;;;;;;5009786;28;20029;-83
2023/02/01 08:13:35;;;;;;;7.50;1.90;;;;;;;;;;4991273;28;20084;-83
2023/02/01 08:16:04;;;;;;;9.25;1.85;;;;;;;;;;5012809;28;20026;-83
2023/02/01 08:18:30;;;;;;;7.75;1.92;;;;;;;;;;5009784;28;20034;-82
2023/02/01 08:20:56;;;;;;;14.13;2.65;;;;;;;;;;5007490;28;20040;-84
2023/02/01 08:23:22;;;;;;;12.90;2.20;;;;;;;;;;4989280;28;20026;-83
2023/02/01 08:25:48;;;;;;;14.75;2.60;;;;;;;;;;4996614;28;20027;-83
2023/02/01 08:28:14;;;;;;;10.90;2.40;;;;;;;;;;5012630;28;20037;-83
2023/02/01 08:30:41;;;;;;;15.45;2.17;;;;;;;;;;5002006;28;20510;-83
2023/02/01 08:33:07;;;;;;;13.05;1.98;;;;;;;;;;5006741;28;20033;-82
2023/02/01 08:35:35;;;;;;;9.13;1.55;;;;;;;;;;5008082;28;20097;-84
2023/02/01 08:38:00;;;;;;;6.70;1.70;;;;;;;;;;5011063;28;20018;-83
2023/02/01 08:40:26;;;;;;;12.63;1.95;;;;;;;;;;4993145;28;20046;-83
2023/02/01 08:42:51;;;;;;;11.32;1.98;;;;;;;;;;4985518;28;20037;-83
2023/02/01 08:45:29;;;;;;;10.82;1.85;;;;;;;;;;5007384;28;20083;-82
2023/02/01 08:47:55;;;;;;;12.73;2.22;;;;;;;;;;5012171;28;20025;-83
2023/02/01 08:50:21;;;;;;;6.68;1.50;;;;;;;;;;5007594;28;20455;-83
2023/02/01 08:52:47;;;;;;;11.07;2.08;;;;;;;;;;4982603;28;20120;-82
2023/02/01 08:55:14;;;;;;;11.43;1.77;;;;;;;;;;5006178;28;20076;-83
2023/02/01 08:57:40;;;;;;;8.30;1.80;;;;;;;;;;5007474;28;20026;-82
2023/02/01 09:00:13;;;;;;;14.02;2.38;;;;;;;;;;5010681;28;20390;-84
2023/02/01 09:02:39;;;;;;;10.23;1.77;;;;;;;;;;5003440;28;20382;-84
2023/02/01 09:05:05;;;;;;;9.40;1.63;;;;;;;;;;5008347;28;20022;-83
2023/02/01 09:07:32;;;;;;;8.93;2.00;;;;;;;;;;5002555;28;20035;-84
2023/02/01 09:10:00;;;;;;;7.28;1.75;;;;;;;;;;4994761;28;20112;-83
2023/02/01 09:12:28;;;;;;;13.32;1.65;;;;;;;;;;4989047;28;20113;-84
2023/02/01 09:14:54;;;;;;;8.50;1.88;;;;;;;;;;5009748;28;20030;-81
2023/02/01 09:17:19;;;;;;;11.90;2.08;;;;;;;;;;5003363;28;20033;-84
2023/02/01 09:19:44;;;;;;;9.88;1.92;;;;;;;;;;5004345;28;20030;-85
2023/02/01 09:22:10;;;;;;;7.95;2.05;;;;;;;;;;5006717;28;20088;-84
2023/02/01 09:24:35;;;;;;;8.35;2.15;;;;;;;;;;5003857;28;20385;-83
2023/02/01 09:27:01;;;;;;;7.05;1.73;;;;;;;;;;5006010;28;20080;-84
2023/02/01 09:29:26;;;;;;;10.80;2.30;;;;;;;;;;5012127;28;20116;-84
2023/02/01 09:31:51;;;;;;;12.25;2.20;;;;;;;;;;5004863;28;20036;-85
2023/02/01 09:34:17;;;;;;;10.13;1.92;;;;;;;;;;5007135;28;20026;-84
2023/02/01 09:36:42;;;;;;;21.63;2.53;;;;;;;;;;5005769;28;20062;-83
2023/02/01 09:39:07;;;;;;;8.25;1.85;;;;;;;;;;5003285;28;20458;-80
2023/02/01 09:42:14;;;;;;;8.63;1.83;;;;;;;;;;5004990;28;20080;-84
2023/02/01 09:45:14;;;;;;;12.85;1.90;;;;;;;;;;5008812;28;20034;-83
2023/02/01 09:48:03;;;;;;;13.10;3.35;;;;;;;;;;4999196;28;20492;-83
2023/02/01 09:50:39;;;;;;;10.30;2.00;;;;;;;;;;5004960;28;20044;-82
2023/02/01 09:53:12;;;;;;;10.93;2.47;;;;;;;;;;5004304;28;20072;-84
2023/02/01 09:55:42;;;;;;;10.32;1.60;;;;;;;;;;5008402;28;20478;-83
2023/02/01 09:58:23;;;;;;;8.07;1.58;;;;;;;;;;4995350;28;20536;-82
2023/02/01 10:00:55;;;;;;;12.13;2.17;;;;;;;;;;5009020;28;20544;-83
2023/02/01 10:03:34;;;;;;;11.55;1.55;;;;;;;;;;5007241;28;20025;-84
2023/02/01 10:06:32;;;;;;;14.13;2.08;;;;;;;;;;4989970;28;20037;-84
2023/02/01 10:09:41;;;;;;;7.50;1.38;;;;;;;;;;5000957;28;20058;-83
2023/02/01 10:12:28;;;;;;;13.00;2.03;;;;;;;;;;4910870;29;20036;-82
2023/02/01 10:15:14;;;;;;;7.40;1.48;;;;;;;;;;5002748;28;20137;-83
2023/02/01 10:18:06;;;;;;;7.15;1.40;;;;;;;;;;5003597;28;20167;-83
2023/02/01 10:21:14;;;;;;;11.50;2.40;;;;;;;;;;4957791;28;21431;-84
2023/02/01 10:23:50;;;;;;;7.63;1.98;;;;;;;;;;4974117;28;20050;-79
2023/02/01 10:26:22;;;;;;;12.02;1.85;;;;;;;;;;5008790;28;20490;-79
2023/02/01 10:28:54;;;;;;;8.60;1.83;;;;;;;;;;4996419;28;20371;-79
2023/02/01 10:31:24;;;;;;;8.88;1.73;;;;;;;;;;5003207;28;20946;-79
2023/02/01 10:33:55;;;;;;;8.10;2.03;;;;;;;;;;4991945;28;20387;-79
2023/02/01 10:36:30;;;;;;;9.65;1.70;;;;;;;;;;5011958;28;20042;-79
2023/02/01 10:38:57;;;;;;;8.13;1.92;;;;;;;;;;5001530;28;20036;-79
2023/02/01 10:41:27;;;;;;;10.38;1.80;;;;;;;;;;5012648;28;20073;-79
2023/02/01 10:43:56;;;;;;;8.40;1.67;;;;;;;;;;4988280;28;20026;-79
2023/02/01 10:46:25;;;;;;;12.68;2.42;;;;;;;;;;5011545;28;20045;-79
2023/02/01 10:48:54;;;;;;;12.38;1.67;;;;;;;;;;4987943;28;20497;-80
2023/02/01 10:51:24;;;;;;;4.93;1.40;;;;;;;;;;5003847;28;20030;-80
2023/02/01 10:53:55;;;;;;;10.95;1.67;;;;;;;;;;5013349;28;20565;-80
2023/02/01 10:56:26;;;;;;;11.02;1.90;;;;;;;;;;4990883;28;20041;-79
2023/02/01 10:59:03;;;;;;;11.85;2.13;;;;;;;;;;4997220;28;20030;-80
2023/02/01 11:01:35;;;;;;;10.52;1.52;;;;;;;;;;5000558;28;20041;-80
2023/02/01 11:04:03;;;;;;;12.50;2.42;;;;;;;;;;5005278;28;20052;-80
2023/02/01 11:06:33;;;;;;;13.13;1.90;;;;;;;;;;4991728;28;20462;-79
2023/02/01 11:09:23;;;;;;;9.07;1.90;;;;;;;;;;5008940;28;20059;-79
2023/02/01 11:11:49;;;;;;;10.20;2.35;;;;;;;;;;5008692;28;20582;-79
2023/02/01 11:14:38;;;;;;;14.52;2.25;;;;;;;;;;5008847;28;20089;-79
2023/02/01 11:17:17;;;;;;;11.30;1.60;;;;;;;;;;5013599;28;20470;-80
2023/02/01 11:19:47;;;;;;;10.43;1.90;;;;;;;;;;5009905;28;20025;-80
2023/02/01 11:22:13;;;;;;;12.38;2.17;;;;;;;;;;5004944;28;20026;-80
2023/02/01 11:24:40;;;;;;;12.73;2.13;;;;;;;;;;5009015;28;20397;-79
2023/02/01 11:27:14;;;;;;;9.23;1.85;;;;;;;;;;5009263;28;20534;-79
2023/02/01 11:29:45;;;;;;;6.65;1.42;;;;;;;;;;5009630;28;20058;-79
2023/02/01 11:32:12;;;;;;;10.20;1.55;;;;;;;;;;5010739;28;20018;-79
2023/02/01 11:34:45;;;;;;;9.43;1.85;;;;;;;;;;4990802;28;20029;-80
2023/02/01 11:37:39;;;;;;;12.18;2.15;;;;;;;;;;4986573;28;20474;-79
2023/02/01 11:40:27;;;;;;;8.48;2.08;;;;;;;;;;5007248;28;20034;-79
2023/02/01 11:42:57;;;;;;;9.23;1.83;;;;;;;;;;5007845;28;20042;-80
2023/02/01 11:45:26;;;;;;;12.95;2.10;;;;;;;;;;5005315;28;20038;-80
2023/02/01 11:47:57;;;;;;;13.50;1.77;;;;;;;;;;5010763;28;20054;-79
2023/02/01 11:50:36;;;;;;;7.30;1.75;;;;;;;;;;5010561;28;20029;-80
2023/02/01 11:53:32;;;;;;;9.80;1.83;;;;;;;;;;4990672;28;20117;-79
2023/02/01 11:56:29;;;;;;;10.68;1.90;;;;;;;;;;4990150;28;20444;-80
2023/02/01 11:59:19;;;;;;;10.95;1.48;;;;;;;;;;5005406;28;20589;-79
2023/02/01 12:02:26;;;;;;;15.18;1.88;;;;;;;;;;5007529;28;20026;-79
2023/02/01 12:05:10;;;;;;;8.52;1.75;;;;;;;;;;5003957;28;20062;-80
2023/02/01 12:07:42;;;;;;;13.25;1.67;;;;;;;;;;5005397;28;20512;-79
2023/02/01 12:10:22;;;;;;;9.05;2.03;;;;;;;;;;5001992;28;20033;-79
2023/02/01 12:12:53;;;;;;;12.30;2.20;;;;;;;;;;5010089;28;20034;-79
2023/02/01 12:15:21;;;;;;;12.20;2.00;;;;;;;;;;5002605;28;20018;-79
2023/02/01 12:17:53;;;;;;;10.52;1.90;;;;;;;;;;5004370;28;20052;-79
2023/02/01 12:20:35;;;;;;;9.63;1.60;;;;;;;;;;5005171;28;20066;-79
2023/02/01 12:23:25;;;;;;;8.38;1.25;;;;;;;;;;5009029;28;20398;-80
2023/02/01 12:26:19;;;;;;;8.60;2.25;;;;;;;;;;5012151;28;20089;-79
2023/02/01 12:29:04;;;;;;;;;;;;;;;;;;5004627;28;20033;-80
2023/02/01 12:31:49;;;;;;;11.02;1.92;;;;;;;;;;5009688;28;19913;-79
2023/02/01 12:34:42;;;;;;;10.57;1.50;;;;;;;;;;5006672;28;20544;-79
2023/02/01 12:37:30;;;;;;;9.18;1.60;;;;;;;;;;5011123;28;20507;-80
2023/02/01 12:40:27;;;;;;;9.73;1.45;;;;;;;;;;5006600;28;20030;-80
2023/02/01 12:43:01;;;;;;;9.15;2.28;;;;;;;;;;4961545;28;20045;-80
2023/02/01 12:45:42;;;;;;;10.73;1.88;;;;;;;;;;5009748;28;20041;-80
2023/02/01 12:48:26;;;;;;;8.57;1.48;;;;;;;;;;4994458;28;20030;-79
2023/02/01 12:50:55;;;;;;;10.77;2.05;;;;;;;;;;4999137;28;20030;-80
2023/02/01 12:53:50;;;;;;;6.93;1.33;;;;;;;;;;4981397;28;20490;-80
2023/02/01 12:56:43;;;;;;;12.27;2.10;;;;;;;;;;5004786;28;20053;-80
2023/02/01 12:59:55;;;;;;;7.65;1.95;;;;;;;;;;4992193;28;20076;-80
2023/02/01 13:02:44;;;;;;;10.25;1.85;;;;;;;;;;4978817;28;20060;-79
2023/02/01 13:05:19;;;;;;;13.98;2.10;;;;;;;;;;5003938;28;20026;-79
2023/02/01 13:07:53;;;;;;;6.32;1.63;;;;;;;;;;4989664;28;20536;-80
2023/02/01 13:10:41;;;;;;;8.65;1.67;;;;;;;;;;5003663;28;20076;-79
2023/02/01 13:13:14;;;;;;;8.90;1.83;;;;;;;;;;5006160;28;20030;-79
2023/02/01 13:15:44;;;;;;;10.02;1.83;;;;;;;;;;5004064;28;20040;-80
2023/02/01 13:18:16;;;;;;;9.68;2.20;;;;;;;;;;5002404;28;20372;-80
2023/02/01 13:20:47;;;;;;;8.80;1.80;;;;;;;;;;5003240;28;20030;-79
2023/02/01 13:23:31;;;;;;;9.38;1.63;;;;;;;;;;5007647;28;20032;-80
2023/02/01 13:25:56;;;;;;;13.52;2.20;;;;;;;;;;4998309;28;20034;-79
2023/02/01 13:28:47;;;;;;;8.45;1.38;;;;;;;;;;5005574;28;20029;-80
2023/02/01 13:31:25;;;;;;;7.40;1.50;;;;;;;;;;4985930;28;20393;-78
2023/02/01 13:34:56;;;;;;;12.45;1.80;;;;;;;;;;5002635;28;20033;-80
2023/02/01 13:37:45;;;;;;;12.70;1.98;;;;;;;;;;4986120;28;20034;-80
2023/02/01 13:40:24;;;;;;;9.63;2.08;;;;;;;;;;5004689;28;20481;-79
2023/02/01 13:42:59;;;;;;;12.43;2.13;;;;;;;;;;4998018;28;20108;-80
2023/02/01 13:45:34;;;;;;;11.85;2.00;;;;;;;;;;4993548;28;20034;-80
2023/02/01 13:48:04;;;;;;;8.38;1.70;;;;;;;;;;5001791;28;20029;-80
2023/02/01 13:50:37;;;;;;;7.35;1.48;;;;;;;;;;5006793;28;20381;-80
2023/02/01 13:53:18;;;;;;;9.30;1.70;;;;;;;;;;4991869;28;20049;-80
2023/02/01 13:55:46;;;;;;;11.07;2.10;;;;;;;;;;4999697;28;20101;-80
2023/02/01 13:58:28;;;;;;;9.15;1.65;;;;;;;;;;4999153;28;20022;-80
2023/02/01 14:01:22;;;;;;;13.55;2.05;;;;;;;;;;4984625;28;20034;-80
2023/02/01 14:03:56;;;;;;;10.02;1.38;;;;;;;;;;4986571;28;20030;-80
2023/02/01 14:06:28;;;;;;;10.57;1.83;;;;;;;;;;5003357;28;20021;-79
2023/02/01 14:09:16;;;;;;;12.90;2.22;;;;;;;;;;5004413;28;20034;-80
2023/02/01 14:11:51;;;;;;;14.27;2.20;;;;;;;;;;5003076;28;20469;-80
2023/02/01 14:14:17;;;;;;;12.15;2.17;;;;;;;;;;5000998;28;20050;-80
2023/02/01 14:16:43;;;;;;;8.10;1.98;;;;;;;;;;5004140;28;20034;-80
2023/02/01 14:19:31;;;;;;;8.95;2.00;;;;;;;;;;5003036;28;20042;-80
2023/02/01 14:22:19;;;;;;;11.18;2.10;;;;;;;;;;5000147;28;20056;-80
2023/02/01 14:24:52;;;;;;;7.53;1.77;;;;;;;;;;5010796;28;20084;-80
2023/02/01 14:27:24;;;;;;;8.40;1.65;;;;;;;;;;5008951;28;20065;-80
2023/02/01 14:29:59;;;;;;;8.77;1.90;;;;;;;;;;5004642;28;20059;-80
2023/02/01 14:32:34;;;;;;;7.32;1.73;;;;;;;;;;5012149;28;20037;-80
2023/02/01 14:35:02;;;;;;;10.52;1.95;;;;;;;;;;5008523;28;20466;-80
2023/02/01 14:37:31;;;;;;;12.75;2.42;;;;;;;;;;5008726;28;20454;-80
2023/02/01 14:40:13;;;;;;;6.22;1.67;;;;;;;;;;5010599;28;20053;-80
2023/02/01 14:42:41;;;;;;;8.50;1.65;;;;;;;;;;5010943;28;20549;-80
2023/02/01 14:45:19;;;;;;;9.20;1.90;;;;;;;;;;5003344;28;20389;-80
2023/02/01 14:47:46;;;;;;;7.22;2.10;;;;;;;;;;4993041;28;20064;-80
2023/02/01 14:50:33;;;;;;;10.68;2.60;;;;;;;;;;4996405;28;20400;-79
2023/02/01 14:53:04;;;;;;;15.63;2.17;;;;;;;;;;5009668;28;20029;-80
2023/02/01 14:55:42;;;;;;;8.43;2.03;;;;;;;;;;5008846;28;20022;-81
2023/02/01 14:58:18;;;;;;;7.63;2.80;;;;;;;;;;5008110;28;20038;-80
2023/02/01 15:00:52;;;;;;;12.52;2.17;;;;;;;;;;5010106;28;20040;-80
2023/02/01 15:03:43;;;;;;;12.70;1.98;;;;;;;;;;5011828;28;20090;-80
2023/02/01 15:06:30;;;;;;;8.02;2.05;;;;;;;;;;5010708;28;20022;-80
2023/02/01 15:09:00;;;;;;;7.93;1.75;;;;;;;;;;5011249;28;20025;-80
2023/02/01 15:11:26;;;;;;;14.75;2.35;;;;;;;;;;5008161;28;20038;-80
2023/02/01 15:13:54;;;;;;;7.65;1.52;;;;;;;;;;5009534;28;20033;-80
2023/02/01 15:16:24;;;;;;;10.02;1.73;;;;;;;;;;4992451;28;20039;-80
2023/02/01 15:18:51;;;;;;;15.48;2.10;;;;;;;;;;5011369;28;20516;-80
2023/02/01 15:21:22;;;;;;;8.57;1.65;;;;;;;;;;5011630;28;20485;-80
2023/02/01 15:23:48;;;;;;;14.10;3.40;;;;;;;;;;5007345;28;20029;-80
2023/02/01 15:26:31;;;;;;;11.40;2.05;;;;;;;;;;4998486;28;20021;-79
2023/02/01 15:28:58;;;;;;;11.25;1.63;;;;;;;;;;5005303;28;20040;-79